sensor_id;sensor_type;location;lat;lon;timestamp;P1;durP1;ratioP1;P2;durP2;ratioP2
26686;SDS011;14298;50.900;4.648;2024-03-29T00:00:55;0.30;;;0.30;;
26686;SDS011;14298;50.900;4.648;2024-03-29T00:03:23;0.50;;;0.50;;
26686;SDS011;14298;50.900;4.648;2024-03-29T00:05:52;0.77;;;0.70;;
26686;SDS011;14298;50.900;4.648;2024-03-29T00:08:20;1.63;;;1.53;;
26686;SDS011;14298;50.900;4.648;2024-03-29T00:10:47;0.60;;;0.60;;
26686;SDS011;14298;50.900;4.648;2024-03-29T00:13:15;2.93;;;1.07;;
26686;SDS011;14298;50.900;4.648;2024-03-29T00:15:45;0.80;;;0.80;;
26686;SDS011;14298;50.900;4.648;2024-03-29T00:18:13;0.50;;;0.50;;
26686;SDS011;14298;50.900;4.648;2024-03-29T00:20:41;0.70;;;0.70;;
26686;SDS011;14298;50.900;4.648;2024-03-29T00:23:09;0.40;;;0.40;;
26686;SDS011;14298;50.900;4.648;2024-03-29T00:25:37;0.60;;;0.60;;
26686;SDS011;14298;50.900;4.648;2024-03-29T00:28:05;3.60;;;0.93;;
26686;SDS011;14298;50.900;4.648;2024-03-29T00:30:34;1.13;;;1.03;;
26686;SDS011;14298;50.900;4.648;2024-03-29T00:33:02;0.50;;;0.50;;
26686;SDS011;14298;50.900;4.648;2024-03-29T00:35:30;0.50;;;0.50;;
26686;SDS011;14298;50.900;4.648;2024-03-29T00:37:58;2.53;;;0.77;;
26686;SDS011;14298;50.900;4.648;2024-03-29T00:40:26;0.53;;;0.53;;
26686;SDS011;14298;50.900;4.648;2024-03-29T00:42:54;0.50;;;0.50;;
26686;SDS011;14298;50.900;4.648;2024-03-29T00:45:22;0.43;;;0.43;;
26686;SDS011;14298;50.900;4.648;2024-03-29T00:47:50;7.00;;;1.03;;
26686;SDS011;14298;50.900;4.648;2024-03-29T00:50:18;2.37;;;1.27;;
26686;SDS011;14298;50.900;4.648;2024-03-29T00:52:47;0.50;;;0.50;;
26686;SDS011;14298;50.900;4.648;2024-03-29T00:55:15;0.50;;;0.50;;
26686;SDS011;14298;50.900;4.648;2024-03-29T00:57:43;3.50;;;0.50;;
26686;SDS011;14298;50.900;4.648;2024-03-29T01:00:11;0.97;;;0.97;;
26686;SDS011;14298;50.900;4.648;2024-03-29T01:02:39;1.13;;;0.70;;
26686;SDS011;14298;50.900;4.648;2024-03-29T01:05:07;0.40;;;0.40;;
26686;SDS011;14298;50.900;4.648;2024-03-29T01:07:35;0.77;;;0.77;;
26686;SDS011;14298;50.900;4.648;2024-03-29T01:10:04;0.93;;;0.50;;
26686;SDS011;14298;50.900;4.648;2024-03-29T01:15:26;0.63;;;0.50;;
26686;SDS011;14298;50.900;4.648;2024-03-29T01:17:54;0.50;;;0.50;;
26686;SDS011;14298;50.900;4.648;2024-03-29T01:20:22;0.30;;;0.30;;
26686;SDS011;14298;50.900;4.648;2024-03-29T01:22:50;0.30;;;0.30;;
26686;SDS011;14298;50.900;4.648;2024-03-29T01:25:18;0.67;;;0.60;;
26686;SDS011;14298;50.900;4.648;2024-03-29T01:27:46;0.30;;;0.30;;
26686;SDS011;14298;50.900;4.648;2024-03-29T01:30:14;1.80;;;0.40;;
26686;SDS011;14298;50.900;4.648;2024-03-29T01:32:42;0.40;;;0.40;;
26686;SDS011;14298;50.900;4.648;2024-03-29T01:35:10;0.30;;;0.30;;
26686;SDS011;14298;50.900;4.648;2024-03-29T01:37:38;0.70;;;0.70;;
26686;SDS011;14298;50.900;4.648;2024-03-29T01:40:06;0.60;;;0.60;;
26686;SDS011;14298;50.900;4.648;2024-03-29T01:42:35;0.30;;;0.30;;
26686;SDS011;14298;50.900;4.648;2024-03-29T01:45:04;0.40;;;0.40;;
26686;SDS011;14298;50.900;4.648;2024-03-29T01:47:32;1.70;;;0.63;;
26686;SDS011;14298;50.900;4.648;2024-03-29T01:50:00;0.50;;;0.50;;
26686;SDS011;14298;50.900;4.648;2024-03-29T01:52:28;0.30;;;0.30;;
26686;SDS011;14298;50.900;4.648;2024-03-29T01:54:57;0.40;;;0.40;;
26686;SDS011;14298;50.900;4.648;2024-03-29T01:57:25;0.40;;;0.40;;
26686;SDS011;14298;50.900;4.648;2024-03-29T01:59:53;0.67;;;0.67;;
26686;SDS011;14298;50.900;4.648;2024-03-29T02:02:21;0.50;;;0.50;;
26686;SDS011;14298;50.900;4.648;2024-03-29T02:04:50;0.50;;;0.40;;
26686;SDS011;14298;50.900;4.648;2024-03-29T02:07:18;0.37;;;0.37;;
26686;SDS011;14298;50.900;4.648;2024-03-29T02:09:46;0.30;;;0.30;;
26686;SDS011;14298;50.900;4.648;2024-03-29T02:12:14;2.93;;;0.93;;
26686;SDS011;14298;50.900;4.648;2024-03-29T02:14:42;0.60;;;0.60;;
26686;SDS011;14298;50.900;4.648;2024-03-29T02:17:10;0.30;;;0.30;;
26686;SDS011;14298;50.900;4.648;2024-03-29T02:19:38;0.50;;;0.50;;
26686;SDS011;14298;50.900;4.648;2024-03-29T02:22:06;0.53;;;0.50;;
26686;SDS011;14298;50.900;4.648;2024-03-29T02:24:35;0.60;;;0.60;;
26686;SDS011;14298;50.900;4.648;2024-03-29T02:27:03;0.43;;;0.43;;
26686;SDS011;14298;50.900;4.648;2024-03-29T02:29:31;0.80;;;0.80;;
26686;SDS011;14298;50.900;4.648;2024-03-29T02:31:59;0.40;;;0.40;;
26686;SDS011;14298;50.900;4.648;2024-03-29T02:34:27;0.40;;;0.40;;
26686;SDS011;14298;50.900;4.648;2024-03-29T02:36:55;0.40;;;0.40;;
26686;SDS011;14298;50.900;4.648;2024-03-29T02:39:24;0.30;;;0.30;;
26686;SDS011;14298;50.900;4.648;2024-03-29T02:41:52;0.50;;;0.50;;
26686;SDS011;14298;50.900;4.648;2024-03-29T02:44:20;0.30;;;0.30;;
26686;SDS011;14298;50.900;4.648;2024-03-29T02:46:48;0.47;;;0.47;;
26686;SDS011;14298;50.900;4.648;2024-03-29T02:49:16;0.47;;;0.47;;
26686;SDS011;14298;50.900;4.648;2024-03-29T02:51:44;0.37;;;0.37;;
26686;SDS011;14298;50.900;4.648;2024-03-29T02:54:12;0.30;;;0.30;;
26686;SDS011;14298;50.900;4.648;2024-03-29T02:56:40;0.60;;;0.60;;
26686;SDS011;14298;50.900;4.648;2024-03-29T02:59:08;7.43;;;0.83;;
26686;SDS011;14298;50.900;4.648;2024-03-29T03:01:36;0.60;;;0.60;;
26686;SDS011;14298;50.900;4.648;2024-03-29T03:04:04;0.83;;;0.83;;
26686;SDS011;14298;50.900;4.648;2024-03-29T03:06:32;0.90;;;0.90;;
26686;SDS011;14298;50.900;4.648;2024-03-29T03:09:00;1.13;;;1.03;;
26686;SDS011;14298;50.900;4.648;2024-03-29T03:11:46;0.57;;;0.57;;
26686;SDS011;14298;50.900;4.648;2024-03-29T03:14:14;0.70;;;0.70;;
26686;SDS011;14298;50.900;4.648;2024-03-29T03:16:42;0.40;;;0.40;;
26686;SDS011;14298;50.900;4.648;2024-03-29T03:19:10;1.60;;;0.60;;
26686;SDS011;14298;50.900;4.648;2024-03-29T03:21:38;0.50;;;0.50;;
26686;SDS011;14298;50.900;4.648;2024-03-29T03:24:06;0.83;;;0.73;;
26686;SDS011;14298;50.900;4.648;2024-03-29T03:26:34;0.40;;;0.40;;
26686;SDS011;14298;50.900;4.648;2024-03-29T03:29:02;0.67;;;0.67;;
26686;SDS011;14298;50.900;4.648;2024-03-29T03:31:30;0.50;;;0.50;;
26686;SDS011;14298;50.900;4.648;2024-03-29T03:33:58;4.00;;;0.70;;
26686;SDS011;14298;50.900;4.648;2024-03-29T03:36:26;2.43;;;1.10;;
26686;SDS011;14298;50.900;4.648;2024-03-29T03:38:54;0.90;;;0.90;;
26686;SDS011;14298;50.900;4.648;2024-03-29T03:41:22;0.87;;;0.87;;
26686;SDS011;14298;50.900;4.648;2024-03-29T03:43:50;1.07;;;1.07;;
26686;SDS011;14298;50.900;4.648;2024-03-29T03:46:18;1.13;;;1.13;;
26686;SDS011;14298;50.900;4.648;2024-03-29T03:48:46;1.00;;;1.00;;
26686;SDS011;14298;50.900;4.648;2024-03-29T03:51:14;1.53;;;1.43;;
26686;SDS011;14298;50.900;4.648;2024-03-29T03:53:43;1.30;;;1.30;;
26686;SDS011;14298;50.900;4.648;2024-03-29T03:56:11;2.10;;;1.43;;
26686;SDS011;14298;50.900;4.648;2024-03-29T03:58:39;1.00;;;1.00;;
26686;SDS011;14298;50.900;4.648;2024-03-29T04:01:07;1.00;;;1.00;;
26686;SDS011;14298;50.900;4.648;2024-03-29T04:03:35;1.17;;;1.17;;
26686;SDS011;14298;50.900;4.648;2024-03-29T04:06:03;1.00;;;1.00;;
26686;SDS011;14298;50.900;4.648;2024-03-29T04:08:32;1.70;;;1.60;;
26686;SDS011;14298;50.900;4.648;2024-03-29T04:11:03;0.63;;;0.63;;
26686;SDS011;14298;50.900;4.648;2024-03-29T04:13:31;2.70;;;1.47;;
26686;SDS011;14298;50.900;4.648;2024-03-29T04:16:06;2.93;;;1.70;;
26686;SDS011;14298;50.900;4.648;2024-03-29T04:18:32;0.87;;;0.87;;
26686;SDS011;14298;50.900;4.648;2024-03-29T04:21:01;1.00;;;1.00;;
26686;SDS011;14298;50.900;4.648;2024-03-29T04:23:29;1.30;;;1.30;;
26686;SDS011;14298;50.900;4.648;2024-03-29T04:25:58;1.30;;;1.30;;
26686;SDS011;14298;50.900;4.648;2024-03-29T04:28:26;1.67;;;1.57;;
26686;SDS011;14298;50.900;4.648;2024-03-29T04:30:58;1.50;;;1.50;;
26686;SDS011;14298;50.900;4.648;2024-03-29T04:33:26;1.40;;;1.40;;
26686;SDS011;14298;50.900;4.648;2024-03-29T04:36:06;1.67;;;1.60;;
26686;SDS011;14298;50.900;4.648;2024-03-29T04:38:31;1.93;;;1.83;;
26686;SDS011;14298;50.900;4.648;2024-03-29T04:40:59;3.30;;;1.47;;
26686;SDS011;14298;50.900;4.648;2024-03-29T04:43:28;1.13;;;1.13;;
26686;SDS011;14298;50.900;4.648;2024-03-29T04:46:03;1.53;;;1.50;;
26686;SDS011;14298;50.900;4.648;2024-03-29T04:48:33;1.67;;;1.63;;
26686;SDS011;14298;50.900;4.648;2024-03-29T04:51:01;1.70;;;1.60;;
26686;SDS011;14298;50.900;4.648;2024-03-29T04:53:30;2.00;;;2.00;;
26686;SDS011;14298;50.900;4.648;2024-03-29T04:55:58;1.47;;;1.47;;
26686;SDS011;14298;50.900;4.648;2024-03-29T04:58:26;1.50;;;1.50;;
26686;SDS011;14298;50.900;4.648;2024-03-29T05:00:55;1.70;;;1.70;;
26686;SDS011;14298;50.900;4.648;2024-03-29T05:03:23;2.13;;;2.07;;
26686;SDS011;14298;50.900;4.648;2024-03-29T05:05:52;1.53;;;1.53;;
26686;SDS011;14298;50.900;4.648;2024-03-29T05:08:20;2.10;;;2.10;;
26686;SDS011;14298;50.900;4.648;2024-03-29T05:10:49;2.40;;;2.30;;
26686;SDS011;14298;50.900;4.648;2024-03-29T05:13:17;2.03;;;2.03;;
26686;SDS011;14298;50.900;4.648;2024-03-29T05:15:48;3.17;;;3.07;;
26686;SDS011;14298;50.900;4.648;2024-03-29T05:18:16;4.13;;;3.93;;
26686;SDS011;14298;50.900;4.648;2024-03-29T05:20:45;2.90;;;2.80;;
26686;SDS011;14298;50.900;4.648;2024-03-29T05:23:17;4.57;;;4.37;;
26686;SDS011;14298;50.900;4.648;2024-03-29T05:25:45;5.37;;;5.07;;
26686;SDS011;14298;50.900;4.648;2024-03-29T05:28:15;4.37;;;4.17;;
26686;SDS011;14298;50.900;4.648;2024-03-29T05:30:43;3.93;;;3.83;;
26686;SDS011;14298;50.900;4.648;2024-03-29T05:33:11;4.20;;;3.90;;
26686;SDS011;14298;50.900;4.648;2024-03-29T05:35:39;4.57;;;4.37;;
26686;SDS011;14298;50.900;4.648;2024-03-29T05:38:07;4.90;;;4.70;;
26686;SDS011;14298;50.900;4.648;2024-03-29T05:40:35;5.23;;;5.03;;
26686;SDS011;14298;50.900;4.648;2024-03-29T05:43:04;5.33;;;5.13;;
26686;SDS011;14298;50.900;4.648;2024-03-29T05:45:32;5.77;;;5.47;;
26686;SDS011;14298;50.900;4.648;2024-03-29T05:48:00;5.70;;;5.40;;
26686;SDS011;14298;50.900;4.648;2024-03-29T05:50:28;5.50;;;5.20;;
26686;SDS011;14298;50.900;4.648;2024-03-29T05:52:56;5.57;;;5.37;;
26686;SDS011;14298;50.900;4.648;2024-03-29T05:55:26;5.67;;;5.47;;
26686;SDS011;14298;50.900;4.648;2024-03-29T05:57:54;6.00;;;5.80;;
26686;SDS011;14298;50.900;4.648;2024-03-29T06:00:22;7.17;;;6.87;;
26686;SDS011;14298;50.900;4.648;2024-03-29T06:02:51;6.80;;;6.50;;
26686;SDS011;14298;50.900;4.648;2024-03-29T06:05:19;7.47;;;7.17;;
26686;SDS011;14298;50.900;4.648;2024-03-29T06:07:47;7.40;;;7.10;;
26686;SDS011;14298;50.900;4.648;2024-03-29T06:10:15;6.83;;;6.53;;
26686;SDS011;14298;50.900;4.648;2024-03-29T06:12:44;7.47;;;7.17;;
26686;SDS011;14298;50.900;4.648;2024-03-29T06:15:12;10.70;;;6.30;;
26686;SDS011;14298;50.900;4.648;2024-03-29T06:17:58;7.67;;;7.37;;
26686;SDS011;14298;50.900;4.648;2024-03-29T06:20:26;6.77;;;6.47;;
26686;SDS011;14298;50.900;4.648;2024-03-29T06:22:54;5.87;;;5.67;;
26686;SDS011;14298;50.900;4.648;2024-03-29T06:25:22;6.03;;;5.83;;
26686;SDS011;14298;50.900;4.648;2024-03-29T06:27:50;5.80;;;5.60;;
26686;SDS011;14298;50.900;4.648;2024-03-29T06:30:18;6.17;;;5.87;;
26686;SDS011;14298;50.900;4.648;2024-03-29T06:32:46;6.40;;;6.07;;
26686;SDS011;14298;50.900;4.648;2024-03-29T06:35:14;6.10;;;5.90;;
26686;SDS011;14298;50.900;4.648;2024-03-29T06:37:42;6.23;;;5.93;;
26686;SDS011;14298;50.900;4.648;2024-03-29T06:40:10;5.57;;;5.37;;
26686;SDS011;14298;50.900;4.648;2024-03-29T06:42:38;6.23;;;6.03;;
26686;SDS011;14298;50.900;4.648;2024-03-29T06:45:06;5.97;;;5.77;;
26686;SDS011;14298;50.900;4.648;2024-03-29T06:47:36;6.80;;;6.50;;
26686;SDS011;14298;50.900;4.648;2024-03-29T06:50:04;6.33;;;6.03;;
26686;SDS011;14298;50.900;4.648;2024-03-29T06:52:33;5.70;;;5.30;;
26686;SDS011;14298;50.900;4.648;2024-03-29T06:55:01;6.00;;;5.80;;
26686;SDS011;14298;50.900;4.648;2024-03-29T06:57:29;7.50;;;7.00;;
26686;SDS011;14298;50.900;4.648;2024-03-29T06:59:58;6.50;;;6.10;;
26686;SDS011;14298;50.900;4.648;2024-03-29T07:02:26;6.60;;;6.00;;
26686;SDS011;14298;50.900;4.648;2024-03-29T07:04:54;5.07;;;4.87;;
26686;SDS011;14298;50.900;4.648;2024-03-29T07:07:23;5.37;;;5.17;;
26686;SDS011;14298;50.900;4.648;2024-03-29T07:09:51;6.37;;;6.00;;
26686;SDS011;14298;50.900;4.648;2024-03-29T07:12:19;5.30;;;5.10;;
26686;SDS011;14298;50.900;4.648;2024-03-29T07:14:47;6.33;;;6.07;;
26686;SDS011;14298;50.900;4.648;2024-03-29T07:17:15;5.87;;;5.57;;
26686;SDS011;14298;50.900;4.648;2024-03-29T07:19:43;5.80;;;5.50;;
26686;SDS011;14298;50.900;4.648;2024-03-29T07:22:11;5.90;;;5.60;;
26686;SDS011;14298;50.900;4.648;2024-03-29T07:24:39;5.10;;;4.90;;
26686;SDS011;14298;50.900;4.648;2024-03-29T07:27:07;4.63;;;4.43;;
26686;SDS011;14298;50.900;4.648;2024-03-29T07:29:35;4.30;;;4.13;;
26686;SDS011;14298;50.900;4.648;2024-03-29T07:32:03;3.83;;;3.63;;
26686;SDS011;14298;50.900;4.648;2024-03-29T07:34:31;4.63;;;4.33;;
26686;SDS011;14298;50.900;4.648;2024-03-29T07:36:59;4.87;;;4.57;;
26686;SDS011;14298;50.900;4.648;2024-03-29T07:39:27;4.17;;;3.97;;
26686;SDS011;14298;50.900;4.648;2024-03-29T07:41:56;3.50;;;3.10;;
26686;SDS011;14298;50.900;4.648;2024-03-29T07:44:24;3.50;;;3.30;;
26686;SDS011;14298;50.900;4.648;2024-03-29T07:46:52;2.87;;;2.60;;
26686;SDS011;14298;50.900;4.648;2024-03-29T07:49:20;3.10;;;2.90;;
26686;SDS011;14298;50.900;4.648;2024-03-29T07:51:49;2.80;;;2.70;;
26686;SDS011;14298;50.900;4.648;2024-03-29T07:54:17;3.70;;;3.50;;
26686;SDS011;14298;50.900;4.648;2024-03-29T07:56:45;2.73;;;2.53;;
26686;SDS011;14298;50.900;4.648;2024-03-29T07:59:13;3.07;;;2.87;;
26686;SDS011;14298;50.900;4.648;2024-03-29T08:01:41;2.80;;;2.70;;
26686;SDS011;14298;50.900;4.648;2024-03-29T08:04:10;2.83;;;2.63;;
26686;SDS011;14298;50.900;4.648;2024-03-29T08:06:38;2.83;;;2.63;;
26686;SDS011;14298;50.900;4.648;2024-03-29T08:09:06;2.47;;;2.37;;
26686;SDS011;14298;50.900;4.648;2024-03-29T08:11:34;1.80;;;1.70;;
26686;SDS011;14298;50.900;4.648;2024-03-29T08:14:02;1.80;;;1.80;;
26686;SDS011;14298;50.900;4.648;2024-03-29T08:16:30;1.80;;;1.70;;
26686;SDS011;14298;50.900;4.648;2024-03-29T08:18:58;1.90;;;1.80;;
26686;SDS011;14298;50.900;4.648;2024-03-29T08:21:26;2.13;;;2.03;;
26686;SDS011;14298;50.900;4.648;2024-03-29T08:23:57;1.87;;;1.80;;
26686;SDS011;14298;50.900;4.648;2024-03-29T08:26:25;1.63;;;1.53;;
26686;SDS011;14298;50.900;4.648;2024-03-29T08:28:55;1.53;;;1.53;;
26686;SDS011;14298;50.900;4.648;2024-03-29T08:31:23;1.87;;;1.77;;
26686;SDS011;14298;50.900;4.648;2024-03-29T08:33:51;1.63;;;1.63;;
26686;SDS011;14298;50.900;4.648;2024-03-29T08:36:20;1.70;;;1.60;;
26686;SDS011;14298;50.900;4.648;2024-03-29T08:38:48;0.97;;;0.97;;
26686;SDS011;14298;50.900;4.648;2024-03-29T08:41:16;1.57;;;1.33;;
26686;SDS011;14298;50.900;4.648;2024-03-29T08:43:43;1.57;;;1.50;;
26686;SDS011;14298;50.900;4.648;2024-03-29T08:46:12;2.27;;;1.43;;
26686;SDS011;14298;50.900;4.648;2024-03-29T08:48:40;1.00;;;1.00;;
26686;SDS011;14298;50.900;4.648;2024-03-29T08:51:09;0.87;;;0.87;;
26686;SDS011;14298;50.900;4.648;2024-03-29T08:53:37;4.07;;;1.10;;
26686;SDS011;14298;50.900;4.648;2024-03-29T08:56:05;1.10;;;1.10;;
26686;SDS011;14298;50.900;4.648;2024-03-29T08:58:33;1.20;;;1.13;;
26686;SDS011;14298;50.900;4.648;2024-03-29T09:01:03;1.10;;;1.00;;
26686;SDS011;14298;50.900;4.648;2024-03-29T09:03:31;1.57;;;1.30;;
26686;SDS011;14298;50.900;4.648;2024-03-29T09:05:59;0.83;;;0.83;;
26686;SDS011;14298;50.900;4.648;2024-03-29T09:08:27;1.30;;;1.03;;
26686;SDS011;14298;50.900;4.648;2024-03-29T09:10:55;0.67;;;0.67;;
26686;SDS011;14298;50.900;4.648;2024-03-29T09:13:23;0.90;;;0.90;;
26686;SDS011;14298;50.900;4.648;2024-03-29T09:15:51;0.70;;;0.70;;
26686;SDS011;14298;50.900;4.648;2024-03-29T09:18:19;0.43;;;0.43;;
26686;SDS011;14298;50.900;4.648;2024-03-29T09:20:56;0.50;;;0.50;;
26686;SDS011;14298;50.900;4.648;2024-03-29T09:23:25;0.70;;;0.70;;
26686;SDS011;14298;50.900;4.648;2024-03-29T09:25:55;0.50;;;0.50;;
26686;SDS011;14298;50.900;4.648;2024-03-29T09:28:24;3.90;;;1.50;;
26686;SDS011;14298;50.900;4.648;2024-03-29T09:30:58;0.50;;;0.50;;
26686;SDS011;14298;50.900;4.648;2024-03-29T09:33:26;0.50;;;0.50;;
26686;SDS011;14298;50.900;4.648;2024-03-29T09:35:54;0.70;;;0.70;;
26686;SDS011;14298;50.900;4.648;2024-03-29T09:38:24;0.40;;;0.40;;
26686;SDS011;14298;50.900;4.648;2024-03-29T09:41:16;0.43;;;0.43;;
26686;SDS011;14298;50.900;4.648;2024-03-29T09:43:44;0.30;;;0.30;;
26686;SDS011;14298;50.900;4.648;2024-03-29T09:46:13;0.30;;;0.30;;
26686;SDS011;14298;50.900;4.648;2024-03-29T09:48:42;0.50;;;0.50;;
26686;SDS011;14298;50.900;4.648;2024-03-29T09:51:12;0.40;;;0.40;;
26686;SDS011;14298;50.900;4.648;2024-03-29T09:53:41;0.40;;;0.40;;
26686;SDS011;14298;50.900;4.648;2024-03-29T09:56:10;0.40;;;0.40;;
26686;SDS011;14298;50.900;4.648;2024-03-29T09:58:38;0.30;;;0.30;;
26686;SDS011;14298;50.900;4.648;2024-03-29T10:01:07;0.30;;;0.30;;
26686;SDS011;14298;50.900;4.648;2024-03-29T10:03:40;0.20;;;0.20;;
26686;SDS011;14298;50.900;4.648;2024-03-29T10:06:08;0.20;;;0.20;;
26686;SDS011;14298;50.900;4.648;2024-03-29T10:08:39;0.20;;;0.20;;
26686;SDS011;14298;50.900;4.648;2024-03-29T10:11:07;0.53;;;0.53;;
26686;SDS011;14298;50.900;4.648;2024-03-29T10:13:36;0.17;;;0.17;;
26686;SDS011;14298;50.900;4.648;2024-03-29T10:16:04;0.20;;;0.20;;
26686;SDS011;14298;50.900;4.648;2024-03-29T10:18:32;0.30;;;0.30;;
26686;SDS011;14298;50.900;4.648;2024-03-29T10:21:04;0.70;;;0.30;;
26686;SDS011;14298;50.900;4.648;2024-03-29T10:23:33;0.43;;;0.43;;
26686;SDS011;14298;50.900;4.648;2024-03-29T10:26:02;0.13;;;0.13;;
26686;SDS011;14298;50.900;4.648;2024-03-29T10:28:31;0.73;;;0.53;;
26686;SDS011;14298;50.900;4.648;2024-03-29T10:31:03;0.87;;;0.40;;
26686;SDS011;14298;50.900;4.648;2024-03-29T10:33:32;0.40;;;0.30;;
26686;SDS011;14298;50.900;4.648;2024-03-29T10:36:00;0.23;;;0.23;;
26686;SDS011;14298;50.900;4.648;2024-03-29T10:38:30;0.40;;;0.40;;
26686;SDS011;14298;50.900;4.648;2024-03-29T10:40:58;0.30;;;0.30;;
26686;SDS011;14298;50.900;4.648;2024-03-29T10:43:27;0.20;;;0.20;;
26686;SDS011;14298;50.900;4.648;2024-03-29T10:45:56;0.97;;;0.80;;
26686;SDS011;14298;50.900;4.648;2024-03-29T10:48:27;0.40;;;0.40;;
26686;SDS011;14298;50.900;4.648;2024-03-29T10:50:55;0.40;;;0.30;;
26686;SDS011;14298;50.900;4.648;2024-03-29T10:53:25;0.40;;;0.40;;
26686;SDS011;14298;50.900;4.648;2024-03-29T10:55:54;0.33;;;0.33;;
26686;SDS011;14298;50.900;4.648;2024-03-29T10:58:33;0.30;;;0.30;;
26686;SDS011;14298;50.900;4.648;2024-03-29T11:00:57;0.30;;;0.30;;
26686;SDS011;14298;50.900;4.648;2024-03-29T11:03:37;0.20;;;0.20;;
26686;SDS011;14298;50.900;4.648;2024-03-29T11:06:06;0.67;;;0.50;;
26686;SDS011;14298;50.900;4.648;2024-03-29T11:08:35;0.43;;;0.43;;
26686;SDS011;14298;50.900;4.648;2024-03-29T11:11:05;0.43;;;0.43;;
26686;SDS011;14298;50.900;4.648;2024-03-29T11:16:04;0.40;;;0.40;;
26686;SDS011;14298;50.900;4.648;2024-03-29T11:18:32;0.30;;;0.30;;
26686;SDS011;14298;50.900;4.648;2024-03-29T11:21:00;0.23;;;0.23;;
26686;SDS011;14298;50.900;4.648;2024-03-29T11:23:30;0.60;;;0.50;;
26686;SDS011;14298;50.900;4.648;2024-03-29T11:25:58;0.87;;;0.60;;
26686;SDS011;14298;50.900;4.648;2024-03-29T11:28:31;0.73;;;0.57;;
26686;SDS011;14298;50.900;4.648;2024-03-29T11:31:01;0.23;;;0.23;;
26686;SDS011;14298;50.900;4.648;2024-03-29T11:33:31;0.37;;;0.37;;
26686;SDS011;14298;50.900;4.648;2024-03-29T11:36:06;0.27;;;0.27;;
26686;SDS011;14298;50.900;4.648;2024-03-29T11:38:30;0.20;;;0.20;;
26686;SDS011;14298;50.900;4.648;2024-03-29T11:41:04;0.30;;;0.30;;
26686;SDS011;14298;50.900;4.648;2024-03-29T11:43:30;0.30;;;0.30;;
26686;SDS011;14298;50.900;4.648;2024-03-29T11:45:59;0.73;;;0.60;;
26686;SDS011;14298;50.900;4.648;2024-03-29T11:48:29;0.40;;;0.40;;
26686;SDS011;14298;50.900;4.648;2024-03-29T11:51:01;0.30;;;0.30;;
26686;SDS011;14298;50.900;4.648;2024-03-29T11:53:30;0.23;;;0.23;;
26686;SDS011;14298;50.900;4.648;2024-03-29T11:55:59;0.23;;;0.23;;
26686;SDS011;14298;50.900;4.648;2024-03-29T11:58:28;0.20;;;0.20;;
26686;SDS011;14298;50.900;4.648;2024-03-29T12:00:57;0.17;;;0.17;;
26686;SDS011;14298;50.900;4.648;2024-03-29T12:03:26;0.40;;;0.40;;
26686;SDS011;14298;50.900;4.648;2024-03-29T12:05:55;0.30;;;0.30;;
26686;SDS011;14298;50.900;4.648;2024-03-29T12:08:25;2.53;;;0.93;;
26686;SDS011;14298;50.900;4.648;2024-03-29T12:10:53;0.40;;;0.30;;
26686;SDS011;14298;50.900;4.648;2024-03-29T12:13:23;0.40;;;0.40;;
26686;SDS011;14298;50.900;4.648;2024-03-29T12:15:51;0.30;;;0.30;;
26686;SDS011;14298;50.900;4.648;2024-03-29T12:18:19;0.30;;;0.30;;
26686;SDS011;14298;50.900;4.648;2024-03-29T12:20:48;0.20;;;0.20;;
26686;SDS011;14298;50.900;4.648;2024-03-29T12:23:17;0.17;;;0.17;;
26686;SDS011;14298;50.900;4.648;2024-03-29T12:25:45;0.30;;;0.30;;
26686;SDS011;14298;50.900;4.648;2024-03-29T12:28:14;0.10;;;0.10;;
26686;SDS011;14298;50.900;4.648;2024-03-29T12:30:44;0.47;;;0.10;;
26686;SDS011;14298;50.900;4.648;2024-03-29T12:33:13;0.20;;;0.20;;
26686;SDS011;14298;50.900;4.648;2024-03-29T12:35:42;0.20;;;0.20;;
26686;SDS011;14298;50.900;4.648;2024-03-29T12:38:15;0.20;;;0.20;;
26686;SDS011;14298;50.900;4.648;2024-03-29T12:40:44;0.10;;;0.10;;
26686;SDS011;14298;50.900;4.648;2024-03-29T12:43:15;0.73;;;0.23;;
26686;SDS011;14298;50.900;4.648;2024-03-29T12:45:44;0.10;;;0.10;;
26686;SDS011;14298;50.900;4.648;2024-03-29T12:48:20;0.20;;;0.20;;
26686;SDS011;14298;50.900;4.648;2024-03-29T12:50:50;3.83;;;0.50;;
26686;SDS011;14298;50.900;4.648;2024-03-29T12:53:19;0.20;;;0.20;;
26686;SDS011;14298;50.900;4.648;2024-03-29T12:55:47;0.20;;;0.20;;
26686;SDS011;14298;50.900;4.648;2024-03-29T12:58:16;0.10;;;0.10;;
26686;SDS011;14298;50.900;4.648;2024-03-29T13:00:46;0.10;;;0.10;;
26686;SDS011;14298;50.900;4.648;2024-03-29T13:03:14;0.10;;;0.10;;
26686;SDS011;14298;50.900;4.648;2024-03-29T13:05:42;0.27;;;0.27;;
26686;SDS011;14298;50.900;4.648;2024-03-29T13:08:11;1.23;;;0.60;;
26686;SDS011;14298;50.900;4.648;2024-03-29T13:10:42;0.10;;;0.10;;
26686;SDS011;14298;50.900;4.648;2024-03-29T13:13:10;0.10;;;0.10;;
26686;SDS011;14298;50.900;4.648;2024-03-29T13:15:39;0.10;;;0.10;;
26686;SDS011;14298;50.900;4.648;2024-03-29T13:18:09;0.10;;;0.10;;
26686;SDS011;14298;50.900;4.648;2024-03-29T13:20:39;0.30;;;0.30;;
26686;SDS011;14298;50.900;4.648;2024-03-29T13:23:08;0.13;;;0.13;;
26686;SDS011;14298;50.900;4.648;2024-03-29T13:25:37;0.20;;;0.20;;
26686;SDS011;14298;50.900;4.648;2024-03-29T13:30:53;0.50;;;0.40;;
26686;SDS011;14298;50.900;4.648;2024-03-29T13:33:22;0.20;;;0.20;;
26686;SDS011;14298;50.900;4.648;2024-03-29T13:35:52;0.20;;;0.20;;
26686;SDS011;14298;50.900;4.648;2024-03-29T13:38:22;0.57;;;0.10;;
26686;SDS011;14298;50.900;4.648;2024-03-29T13:40:50;0.10;;;0.10;;
26686;SDS011;14298;50.900;4.648;2024-03-29T13:43:18;0.10;;;0.10;;
26686;SDS011;14298;50.900;4.648;2024-03-29T13:45:49;0.10;;;0.10;;
26686;SDS011;14298;50.900;4.648;2024-03-29T13:48:17;0.20;;;0.20;;
26686;SDS011;14298;50.900;4.648;2024-03-29T13:50:45;0.10;;;0.10;;
26686;SDS011;14298;50.900;4.648;2024-03-29T13:53:13;0.20;;;0.20;;
26686;SDS011;14298;50.900;4.648;2024-03-29T13:55:42;1.80;;;0.30;;
26686;SDS011;14298;50.900;4.648;2024-03-29T13:58:10;0.10;;;0.10;;
26686;SDS011;14298;50.900;4.648;2024-03-29T14:00:38;0.10;;;0.10;;
26686;SDS011;14298;50.900;4.648;2024-03-29T14:03:06;0.10;;;0.10;;
26686;SDS011;14298;50.900;4.648;2024-03-29T14:05:34;0.10;;;0.10;;
26686;SDS011;14298;50.900;4.648;2024-03-29T14:08:03;0.87;;;0.40;;
26686;SDS011;14298;50.900;4.648;2024-03-29T14:10:31;0.10;;;0.10;;
26686;SDS011;14298;50.900;4.648;2024-03-29T14:13:00;1.60;;;0.53;;
26686;SDS011;14298;50.900;4.648;2024-03-29T14:15:29;1.60;;;0.40;;
26686;SDS011;14298;50.900;4.648;2024-03-29T14:17:57;0.13;;;0.13;;
26686;SDS011;14298;50.900;4.648;2024-03-29T14:20:25;0.33;;;0.33;;
26686;SDS011;14298;50.900;4.648;2024-03-29T14:22:53;0.20;;;0.20;;
26686;SDS011;14298;50.900;4.648;2024-03-29T14:25:21;0.23;;;0.23;;
26686;SDS011;14298;50.900;4.648;2024-03-29T14:27:49;0.20;;;0.20;;
26686;SDS011;14298;50.900;4.648;2024-03-29T14:30:25;0.10;;;0.10;;
26686;SDS011;14298;50.900;4.648;2024-03-29T14:32:53;0.33;;;0.33;;
26686;SDS011;14298;50.900;4.648;2024-03-29T14:35:22;0.23;;;0.23;;
26686;SDS011;14298;50.900;4.648;2024-03-29T14:37:51;1.93;;;0.67;;
26686;SDS011;14298;50.900;4.648;2024-03-29T14:40:19;0.17;;;0.17;;
26686;SDS011;14298;50.900;4.648;2024-03-29T14:42:47;0.20;;;0.20;;
26686;SDS011;14298;50.900;4.648;2024-03-29T14:45:15;0.20;;;0.20;;
26686;SDS011;14298;50.900;4.648;2024-03-29T14:47:43;0.17;;;0.17;;
26686;SDS011;14298;50.900;4.648;2024-03-29T14:50:11;0.47;;;0.33;;
26686;SDS011;14298;50.900;4.648;2024-03-29T14:52:39;0.20;;;0.20;;
26686;SDS011;14298;50.900;4.648;2024-03-29T14:55:07;2.23;;;0.97;;
26686;SDS011;14298;50.900;4.648;2024-03-29T14:57:36;0.30;;;0.30;;
26686;SDS011;14298;50.900;4.648;2024-03-29T15:00:04;0.30;;;0.30;;
26686;SDS011;14298;50.900;4.648;2024-03-29T15:02:32;0.30;;;0.30;;
26686;SDS011;14298;50.900;4.648;2024-03-29T15:05:00;1.07;;;0.60;;